Pinetta, Florida
Current Conditions -  °F | °C
As of 10:53 AM on Monday 24 Nov 2014 (Local Time) from KVLD Reporting Station
Overcast Overcast  
Wind Chill: 75°   Ceiling: 1300
Heat Index: 75°   Visibility: 10mi
Dew Point: 71°   Wind: 9mph
Humidity: 87%   Direction: 210°SSW
Pressure: 29.91"   Gusts: NA
Location:  30.59°N, 83.35°W
Report Text: KVLD 241553Z 21008KT 10SM OVC013 24/22 A2991 RMK AO2 SLP134 T02390217
Loading
Personal Weather Stations






























Interactive Weather Map New forecast layout! Learn more

10-Day Weather Forecast

Advertisements
Track Severe Weather on mobile